sensor_id;sensor_type;location;lat;lon;timestamp;temperature;humidity
68511;SHT31;55512;50.102;19.958;2023-06-14T00:02:09;14.02;70.20
68511;SHT31;55512;50.102;19.958;2023-06-14T00:04:35;14.03;70.28
68511;SHT31;55512;50.102;19.958;2023-06-14T00:07:01;14.07;70.14
68511;SHT31;55512;50.102;19.958;2023-06-14T00:09:27;14.09;70.02
68511;SHT31;55512;50.102;19.958;2023-06-14T00:11:52;14.10;70.19
68511;SHT31;55512;50.102;19.958;2023-06-14T00:14:18;14.13;70.10
68511;SHT31;55512;50.102;19.958;2023-06-14T00:16:43;14.16;70.10
68511;SHT31;55512;50.102;19.958;2023-06-14T00:19:09;14.17;70.10
68511;SHT31;55512;50.102;19.958;2023-06-14T00:21:35;14.20;70.06
68511;SHT31;55512;50.102;19.958;2023-06-14T00:24:02;14.24;70.08
68511;SHT31;55512;50.102;19.958;2023-06-14T00:26:29;14.27;70.09
68511;SHT31;55512;50.102;19.958;2023-06-14T00:28:55;14.28;70.21
68511;SHT31;55512;50.102;19.958;2023-06-14T00:31:22;14.31;70.19
68511;SHT31;55512;50.102;19.958;2023-06-14T00:33:48;14.28;70.45
68511;SHT31;55512;50.102;19.958;2023-06-14T00:36:13;14.30;70.58
68511;SHT31;55512;50.102;19.958;2023-06-14T00:38:39;14.28;70.77
68511;SHT31;55512;50.102;19.958;2023-06-14T00:41:04;14.27;70.84
68511;SHT31;55512;50.102;19.958;2023-06-14T00:43:30;14.29;70.90
68511;SHT31;55512;50.102;19.958;2023-06-14T00:45:55;14.32;70.88
68511;SHT31;55512;50.102;19.958;2023-06-14T00:48:21;14.27;71.17
68511;SHT31;55512;50.102;19.958;2023-06-14T00:50:49;14.25;71.26
68511;SHT31;55512;50.102;19.958;2023-06-14T00:53:17;14.23;71.42
68511;SHT31;55512;50.102;19.958;2023-06-14T00:55:45;14.20;71.60
68511;SHT31;55512;50.102;19.958;2023-06-14T00:58:12;14.12;72.02
68511;SHT31;55512;50.102;19.958;2023-06-14T01:00:39;14.02;72.50
68511;SHT31;55512;50.102;19.958;2023-06-14T01:03:04;13.94;72.63
68511;SHT31;55512;50.102;19.958;2023-06-14T01:05:30;13.92;72.63
68511;SHT31;55512;50.102;19.958;2023-06-14T01:11:07;13.90;72.83
68511;SHT31;55512;50.102;19.958;2023-06-14T01:13:44;13.92;72.80
68511;SHT31;55512;50.102;19.958;2023-06-14T01:16:11;13.94;72.75
68511;SHT31;55512;50.102;19.958;2023-06-14T01:18:38;13.97;72.68
68511;SHT31;55512;50.102;19.958;2023-06-14T01:21:03;14.00;72.53
68511;SHT31;55512;50.102;19.958;2023-06-14T01:23:31;14.02;72.48
68511;SHT31;55512;50.102;19.958;2023-06-14T01:25:58;14.04;72.40
68511;SHT31;55512;50.102;19.958;2023-06-14T01:28:25;14.07;72.35
68511;SHT31;55512;50.102;19.958;2023-06-14T01:30:57;14.10;72.27
68511;SHT31;55512;50.102;19.958;2023-06-14T01:33:29;14.11;72.24
68511;SHT31;55512;50.102;19.958;2023-06-14T01:35:57;14.14;72.20
68511;SHT31;55512;50.102;19.958;2023-06-14T01:38:25;14.18;72.26
68511;SHT31;55512;50.102;19.958;2023-06-14T01:40:52;14.21;72.14
68511;SHT31;55512;50.102;19.958;2023-06-14T01:43:22;14.23;72.10
68511;SHT31;55512;50.102;19.958;2023-06-14T01:45:49;14.25;72.10
68511;SHT31;55512;50.102;19.958;2023-06-14T01:48:16;14.25;72.08
68511;SHT31;55512;50.102;19.958;2023-06-14T01:50:42;14.25;72.06
68511;SHT31;55512;50.102;19.958;2023-06-14T01:53:08;14.24;72.14
68511;SHT31;55512;50.102;19.958;2023-06-14T01:55:35;14.24;72.24
68511;SHT31;55512;50.102;19.958;2023-06-14T01:58:05;14.24;72.33
68511;SHT31;55512;50.102;19.958;2023-06-14T02:00:31;14.24;72.38
68511;SHT31;55512;50.102;19.958;2023-06-14T02:02:56;14.25;72.35
68511;SHT31;55512;50.102;19.958;2023-06-14T02:05:22;14.27;72.40
68511;SHT31;55512;50.102;19.958;2023-06-14T02:07:49;14.29;72.41
68511;SHT31;55512;50.102;19.958;2023-06-14T02:10:15;14.33;72.35
68511;SHT31;55512;50.102;19.958;2023-06-14T02:12:42;14.34;72.43
68511;SHT31;55512;50.102;19.958;2023-06-14T02:15:08;14.33;72.48
68511;SHT31;55512;50.102;19.958;2023-06-14T02:17:45;14.32;72.53
68511;SHT31;55512;50.102;19.958;2023-06-14T02:20:14;14.33;72.56
68511;SHT31;55512;50.102;19.958;2023-06-14T02:22:40;14.29;72.73
68511;SHT31;55512;50.102;19.958;2023-06-14T02:25:06;14.30;72.80
68511;SHT31;55512;50.102;19.958;2023-06-14T02:27:33;14.31;72.77
68511;SHT31;55512;50.102;19.958;2023-06-14T02:29:59;14.31;72.85
68511;SHT31;55512;50.102;19.958;2023-06-14T02:32:26;14.34;72.86
68511;SHT31;55512;50.102;19.958;2023-06-14T02:34:54;14.34;72.87
68511;SHT31;55512;50.102;19.958;2023-06-14T02:37:19;14.35;72.89
68511;SHT31;55512;50.102;19.958;2023-06-14T02:42:19;14.34;72.91
68511;SHT31;55512;50.102;19.958;2023-06-14T02:44:45;14.34;72.94
68511;SHT31;55512;50.102;19.958;2023-06-14T02:47:15;14.33;73.02
68511;SHT31;55512;50.102;19.958;2023-06-14T02:49:42;14.35;73.09
68511;SHT31;55512;50.102;19.958;2023-06-14T02:52:08;14.37;73.06
68511;SHT31;55512;50.102;19.958;2023-06-14T02:54:34;14.35;73.07
68511;SHT31;55512;50.102;19.958;2023-06-14T02:56:59;14.33;73.10
68511;SHT31;55512;50.102;19.958;2023-06-14T02:59:25;14.35;73.13
68511;SHT31;55512;50.102;19.958;2023-06-14T03:01:51;14.36;73.10
68511;SHT31;55512;50.102;19.958;2023-06-14T03:04:17;14.35;73.14
68511;SHT31;55512;50.102;19.958;2023-06-14T03:06:42;14.39;73.19
68511;SHT31;55512;50.102;19.958;2023-06-14T03:09:09;14.41;73.11
68511;SHT31;55512;50.102;19.958;2023-06-14T03:11:34;14.41;73.15
68511;SHT31;55512;50.102;19.958;2023-06-14T03:14:00;14.40;73.18
68511;SHT31;55512;50.102;19.958;2023-06-14T03:16:28;14.41;73.20
68511;SHT31;55512;50.102;19.958;2023-06-14T03:18:55;14.41;73.27
68511;SHT31;55512;50.102;19.958;2023-06-14T03:21:20;14.44;73.30
68511;SHT31;55512;50.102;19.958;2023-06-14T03:23:47;14.48;73.31
68511;SHT31;55512;50.102;19.958;2023-06-14T03:26:13;14.51;73.31
68511;SHT31;55512;50.102;19.958;2023-06-14T03:28:42;14.50;73.35
68511;SHT31;55512;50.102;19.958;2023-06-14T03:31:11;14.48;73.47
68511;SHT31;55512;50.102;19.958;2023-06-14T03:33:38;14.48;73.50
68511;SHT31;55512;50.102;19.958;2023-06-14T03:36:05;14.46;73.58
68511;SHT31;55512;50.102;19.958;2023-06-14T03:38:34;14.49;73.57
68511;SHT31;55512;50.102;19.958;2023-06-14T03:41:00;14.50;73.54
68511;SHT31;55512;50.102;19.958;2023-06-14T03:43:25;14.53;73.62
68511;SHT31;55512;50.102;19.958;2023-06-14T03:45:52;14.57;73.62
68511;SHT31;55512;50.102;19.958;2023-06-14T03:48:18;14.70;73.30
68511;SHT31;55512;50.102;19.958;2023-06-14T03:50:43;14.61;73.51
68511;SHT31;55512;50.102;19.958;2023-06-14T03:53:09;14.61;73.64
68511;SHT31;55512;50.102;19.958;2023-06-14T03:55:35;14.62;73.61
68511;SHT31;55512;50.102;19.958;2023-06-14T03:58:02;14.59;73.70
68511;SHT31;55512;50.102;19.958;2023-06-14T04:00:28;14.57;73.82
68511;SHT31;55512;50.102;19.958;2023-06-14T04:02:54;14.60;73.84
68511;SHT31;55512;50.102;19.958;2023-06-14T04:05:19;14.60;73.90
68511;SHT31;55512;50.102;19.958;2023-06-14T04:07:45;14.60;73.90
68511;SHT31;55512;50.102;19.958;2023-06-14T04:10:13;14.59;73.91
68511;SHT31;55512;50.102;19.958;2023-06-14T04:12:45;14.62;73.95
68511;SHT31;55512;50.102;19.958;2023-06-14T04:15:11;14.65;74.00
68511;SHT31;55512;50.102;19.958;2023-06-14T04:17:37;14.67;73.98
68511;SHT31;55512;50.102;19.958;2023-06-14T04:20:03;14.67;73.99
68511;SHT31;55512;50.102;19.958;2023-06-14T04:22:31;14.69;74.15
68511;SHT31;55512;50.102;19.958;2023-06-14T04:24:58;14.72;74.20
68511;SHT31;55512;50.102;19.958;2023-06-14T04:27:24;14.72;74.20
68511;SHT31;55512;50.102;19.958;2023-06-14T04:29:51;14.74;74.21
68511;SHT31;55512;50.102;19.958;2023-06-14T04:32:23;14.73;74.23
68511;SHT31;55512;50.102;19.958;2023-06-14T04:34:51;14.75;74.29
68511;SHT31;55512;50.102;19.958;2023-06-14T04:37:23;14.76;74.24
68511;SHT31;55512;50.102;19.958;2023-06-14T04:39:48;14.79;74.26
68511;SHT31;55512;50.102;19.958;2023-06-14T04:42:15;14.81;74.19
68511;SHT31;55512;50.102;19.958;2023-06-14T04:44:42;14.79;74.09
68511;SHT31;55512;50.102;19.958;2023-06-14T04:47:08;14.75;74.18
68511;SHT31;55512;50.102;19.958;2023-06-14T04:49:36;14.73;74.30
68511;SHT31;55512;50.102;19.958;2023-06-14T04:52:02;14.76;74.32
68511;SHT31;55512;50.102;19.958;2023-06-14T04:54:27;14.80;74.46
68511;SHT31;55512;50.102;19.958;2023-06-14T04:56:53;14.85;74.47
68511;SHT31;55512;50.102;19.958;2023-06-14T04:59:20;14.91;74.55
68511;SHT31;55512;50.102;19.958;2023-06-14T05:01:48;14.95;74.60
68511;SHT31;55512;50.102;19.958;2023-06-14T05:04:15;14.98;74.58
68511;SHT31;55512;50.102;19.958;2023-06-14T05:06:44;15.01;74.57
68511;SHT31;55512;50.102;19.958;2023-06-14T05:09:13;15.02;74.65
68511;SHT31;55512;50.102;19.958;2023-06-14T05:11:39;15.06;74.52
68511;SHT31;55512;50.102;19.958;2023-06-14T05:14:10;15.12;74.65
68511;SHT31;55512;50.102;19.958;2023-06-14T05:16:36;15.15;74.72
68511;SHT31;55512;50.102;19.958;2023-06-14T05:19:02;15.20;74.72
68511;SHT31;55512;50.102;19.958;2023-06-14T05:21:29;15.23;74.66
68511;SHT31;55512;50.102;19.958;2023-06-14T05:23:56;15.29;74.52
68511;SHT31;55512;50.102;19.958;2023-06-14T05:26:22;15.33;74.50
68511;SHT31;55512;50.102;19.958;2023-06-14T05:28:54;15.35;74.48
68511;SHT31;55512;50.102;19.958;2023-06-14T05:31:21;15.41;74.33
68511;SHT31;55512;50.102;19.958;2023-06-14T05:33:49;15.44;74.20
68511;SHT31;55512;50.102;19.958;2023-06-14T05:36:16;15.46;74.07
68511;SHT31;55512;50.102;19.958;2023-06-14T05:38:41;15.49;74.00
68511;SHT31;55512;50.102;19.958;2023-06-14T05:41:07;15.50;73.91
68511;SHT31;55512;50.102;19.958;2023-06-14T05:43:32;15.51;73.90
68511;SHT31;55512;50.102;19.958;2023-06-14T05:45:58;15.54;73.84
68511;SHT31;55512;50.102;19.958;2023-06-14T05:48:23;15.57;73.76
68511;SHT31;55512;50.102;19.958;2023-06-14T05:50:49;15.59;73.67
68511;SHT31;55512;50.102;19.958;2023-06-14T05:53:15;15.60;73.57
68511;SHT31;55512;50.102;19.958;2023-06-14T05:55:40;15.61;73.57
68511;SHT31;55512;50.102;19.958;2023-06-14T05:58:06;15.63;73.51
68511;SHT31;55512;50.102;19.958;2023-06-14T06:00:32;15.64;73.50
68511;SHT31;55512;50.102;19.958;2023-06-14T06:02:57;15.66;73.43
68511;SHT31;55512;50.102;19.958;2023-06-14T06:05:23;15.67;73.35
68511;SHT31;55512;50.102;19.958;2023-06-14T06:07:48;15.69;73.22
68511;SHT31;55512;50.102;19.958;2023-06-14T06:10:14;15.70;73.10
68511;SHT31;55512;50.102;19.958;2023-06-14T06:12:41;15.69;73.10
68511;SHT31;55512;50.102;19.958;2023-06-14T06:15:07;15.65;73.08
68511;SHT31;55512;50.102;19.958;2023-06-14T06:17:37;15.65;73.10
68511;SHT31;55512;50.102;19.958;2023-06-14T06:20:03;15.64;73.09
68511;SHT31;55512;50.102;19.958;2023-06-14T06:22:32;15.64;73.02
68511;SHT31;55512;50.102;19.958;2023-06-14T06:24:59;15.66;73.00
68511;SHT31;55512;50.102;19.958;2023-06-14T06:27:25;15.67;72.91
68511;SHT31;55512;50.102;19.958;2023-06-14T06:29:50;15.70;72.82
68511;SHT31;55512;50.102;19.958;2023-06-14T06:32:16;15.75;72.75
68511;SHT31;55512;50.102;19.958;2023-06-14T06:34:42;15.76;72.71
68511;SHT31;55512;50.102;19.958;2023-06-14T06:37:08;15.80;72.69
68511;SHT31;55512;50.102;19.958;2023-06-14T06:39:34;15.80;72.60
68511;SHT31;55512;50.102;19.958;2023-06-14T06:42:00;15.82;72.56
68511;SHT31;55512;50.102;19.958;2023-06-14T06:44:26;15.84;72.58
68511;SHT31;55512;50.102;19.958;2023-06-14T06:46:51;15.86;72.57
68511;SHT31;55512;50.102;19.958;2023-06-14T06:49:17;15.87;72.50
68511;SHT31;55512;50.102;19.958;2023-06-14T06:51:42;15.89;72.50
68511;SHT31;55512;50.102;19.958;2023-06-14T06:54:09;15.89;72.50
68511;SHT31;55512;50.102;19.958;2023-06-14T06:56:35;15.90;72.47
68511;SHT31;55512;50.102;19.958;2023-06-14T06:59:01;15.92;72.41
68511;SHT31;55512;50.102;19.958;2023-06-14T07:01:27;15.93;72.44
68511;SHT31;55512;50.102;19.958;2023-06-14T07:03:54;15.95;72.54
68511;SHT31;55512;50.102;19.958;2023-06-14T07:06:20;15.97;72.70
68511;SHT31;55512;50.102;19.958;2023-06-14T07:08:46;15.98;72.74
68511;SHT31;55512;50.102;19.958;2023-06-14T07:11:13;16.00;72.80
68511;SHT31;55512;50.102;19.958;2023-06-14T07:13:39;16.01;72.80
68511;SHT31;55512;50.102;19.958;2023-06-14T07:16:05;16.04;72.80
68511;SHT31;55512;50.102;19.958;2023-06-14T07:18:31;16.05;72.80
68511;SHT31;55512;50.102;19.958;2023-06-14T07:20:56;16.07;72.77
68511;SHT31;55512;50.102;19.958;2023-06-14T07:23:22;16.08;72.64
68511;SHT31;55512;50.102;19.958;2023-06-14T07:25:48;16.08;72.60
68511;SHT31;55512;50.102;19.958;2023-06-14T07:28:14;16.08;72.57
68511;SHT31;55512;50.102;19.958;2023-06-14T07:30:41;16.06;72.51
68511;SHT31;55512;50.102;19.958;2023-06-14T07:36:00;16.05;72.50
68511;SHT31;55512;50.102;19.958;2023-06-14T07:38:26;16.03;72.50
68511;SHT31;55512;50.102;19.958;2023-06-14T07:40:52;16.02;72.54
68511;SHT31;55512;50.102;19.958;2023-06-14T07:43:17;16.00;72.63
68511;SHT31;55512;50.102;19.958;2023-06-14T07:45:42;15.99;72.65
68511;SHT31;55512;50.102;19.958;2023-06-14T07:48:08;15.97;72.65
68511;SHT31;55512;50.102;19.958;2023-06-14T07:50:34;15.96;72.68
68511;SHT31;55512;50.102;19.958;2023-06-14T07:53:00;15.94;72.74
68511;SHT31;55512;50.102;19.958;2023-06-14T07:55:25;15.88;72.90
68511;SHT31;55512;50.102;19.958;2023-06-14T07:57:51;15.89;72.89
68511;SHT31;55512;50.102;19.958;2023-06-14T08:00:17;15.93;72.90
68511;SHT31;55512;50.102;19.958;2023-06-14T08:02:44;15.99;72.91
68511;SHT31;55512;50.102;19.958;2023-06-14T08:05:10;16.03;72.91
68511;SHT31;55512;50.102;19.958;2023-06-14T08:07:37;16.06;72.86
68511;SHT31;55512;50.102;19.958;2023-06-14T08:10:05;16.12;72.80
68511;SHT31;55512;50.102;19.958;2023-06-14T08:12:31;16.15;72.84
68511;SHT31;55512;50.102;19.958;2023-06-14T08:14:58;16.18;72.76
68511;SHT31;55512;50.102;19.958;2023-06-14T08:17:24;16.14;72.65
68511;SHT31;55512;50.102;19.958;2023-06-14T08:19:50;16.12;72.79
68511;SHT31;55512;50.102;19.958;2023-06-14T08:22:16;16.11;72.74
68511;SHT31;55512;50.102;19.958;2023-06-14T08:24:43;16.09;72.84
68511;SHT31;55512;50.102;19.958;2023-06-14T08:27:09;16.07;72.98
68511;SHT31;55512;50.102;19.958;2023-06-14T08:29:35;16.04;73.09
68511;SHT31;55512;50.102;19.958;2023-06-14T08:32:01;15.95;73.15
68511;SHT31;55512;50.102;19.958;2023-06-14T08:34:27;15.92;73.21
68511;SHT31;55512;50.102;19.958;2023-06-14T08:36:52;15.95;73.29
68511;SHT31;55512;50.102;19.958;2023-06-14T08:39:18;15.95;73.18
68511;SHT31;55512;50.102;19.958;2023-06-14T08:41:47;15.96;73.25
68511;SHT31;55512;50.102;19.958;2023-06-14T08:44:18;15.94;73.40
68511;SHT31;55512;50.102;19.958;2023-06-14T08:46:44;15.93;73.45
68511;SHT31;55512;50.102;19.958;2023-06-14T08:49:13;15.94;73.52
68511;SHT31;55512;50.102;19.958;2023-06-14T08:51:42;15.93;73.52
68511;SHT31;55512;50.102;19.958;2023-06-14T08:54:09;15.93;73.53
68511;SHT31;55512;50.102;19.958;2023-06-14T08:56:37;15.93;73.61
68511;SHT31;55512;50.102;19.958;2023-06-14T08:59:03;15.86;73.87
68511;SHT31;55512;50.102;19.958;2023-06-14T09:01:34;15.82;74.03
68511;SHT31;55512;50.102;19.958;2023-06-14T09:04:02;15.81;74.18
68511;SHT31;55512;50.102;19.958;2023-06-14T09:06:30;15.80;74.20
68511;SHT31;55512;50.102;19.958;2023-06-14T09:08:56;15.82;74.21
68511;SHT31;55512;50.102;19.958;2023-06-14T09:11:23;15.87;74.18
68511;SHT31;55512;50.102;19.958;2023-06-14T09:13:50;15.90;74.07
68511;SHT31;55512;50.102;19.958;2023-06-14T09:16:16;15.92;74.02
68511;SHT31;55512;50.102;19.958;2023-06-14T09:18:45;15.95;74.01
68511;SHT31;55512;50.102;19.958;2023-06-14T09:21:13;15.99;74.07
68511;SHT31;55512;50.102;19.958;2023-06-14T09:23:46;15.98;74.06
68511;SHT31;55512;50.102;19.958;2023-06-14T09:26:19;15.95;74.09
68511;SHT31;55512;50.102;19.958;2023-06-14T09:28:45;15.99;74.35
68511;SHT31;55512;50.102;19.958;2023-06-14T09:31:19;16.07;74.35
68511;SHT31;55512;50.102;19.958;2023-06-14T09:33:46;16.12;74.32
68511;SHT31;55512;50.102;19.958;2023-06-14T09:36:18;16.12;74.21
68511;SHT31;55512;50.102;19.958;2023-06-14T09:38:53;16.20;74.36
68511;SHT31;55512;50.102;19.958;2023-06-14T09:41:38;16.23;74.10
68511;SHT31;55512;50.102;19.958;2023-06-14T09:44:06;16.25;74.00
68511;SHT31;55512;50.102;19.958;2023-06-14T09:46:34;16.21;74.09
68511;SHT31;55512;50.102;19.958;2023-06-14T09:49:01;16.18;74.21
68511;SHT31;55512;50.102;19.958;2023-06-14T09:51:28;16.18;74.24
68511;SHT31;55512;50.102;19.958;2023-06-14T09:54:01;16.16;74.17
68511;SHT31;55512;50.102;19.958;2023-06-14T09:56:32;16.15;74.26
68511;SHT31;55512;50.102;19.958;2023-06-14T09:59:06;16.18;74.29
68511;SHT31;55512;50.102;19.958;2023-06-14T10:01:35;16.16;74.29
68511;SHT31;55512;50.102;19.958;2023-06-14T10:04:06;16.13;74.38
68511;SHT31;55512;50.102;19.958;2023-06-14T10:06:35;16.05;74.52
68511;SHT31;55512;50.102;19.958;2023-06-14T10:09:04;15.99;74.57
68511;SHT31;55512;50.102;19.958;2023-06-14T10:11:34;15.90;74.56
68511;SHT31;55512;50.102;19.958;2023-06-14T10:14:02;15.83;74.74
68511;SHT31;55512;50.102;19.958;2023-06-14T10:24:43;15.77;75.33
68511;SHT31;55512;50.102;19.958;2023-06-14T10:27:14;15.78;75.39
68511;SHT31;55512;50.102;19.958;2023-06-14T10:32:20;15.75;75.55
68511;SHT31;55512;50.102;19.958;2023-06-14T10:37:26;15.84;75.60
68511;SHT31;55512;50.102;19.958;2023-06-14T10:39:52;15.89;75.61
68511;SHT31;55512;50.102;19.958;2023-06-14T10:42:20;15.91;75.43
68511;SHT31;55512;50.102;19.958;2023-06-14T10:44:54;15.96;75.37
68511;SHT31;55512;50.102;19.958;2023-06-14T10:47:24;16.06;75.19
68511;SHT31;55512;50.102;19.958;2023-06-14T10:50:06;16.03;75.15
68511;SHT31;55512;50.102;19.958;2023-06-14T10:52:39;16.07;75.55
68511;SHT31;55512;50.102;19.958;2023-06-14T11:00:05;16.29;74.92
68511;SHT31;55512;50.102;19.958;2023-06-14T11:02:46;16.35;74.76
68511;SHT31;55512;50.102;19.958;2023-06-14T11:05:41;16.41;74.55
68511;SHT31;55512;50.102;19.958;2023-06-14T11:11:09;16.62;74.60
68511;SHT31;55512;50.102;19.958;2023-06-14T11:13:44;16.74;74.28
68511;SHT31;55512;50.102;19.958;2023-06-14T11:16:14;16.81;74.11
68511;SHT31;55512;50.102;19.958;2023-06-14T11:18:42;16.87;73.82
68511;SHT31;55512;50.102;19.958;2023-06-14T11:21:09;16.97;73.49
68511;SHT31;55512;50.102;19.958;2023-06-14T11:23:35;17.02;73.18
68511;SHT31;55512;50.102;19.958;2023-06-14T11:26:01;17.05;73.22
68511;SHT31;55512;50.102;19.958;2023-06-14T11:28:36;17.10;73.47
68511;SHT31;55512;50.102;19.958;2023-06-14T11:31:05;17.22;73.22
68511;SHT31;55512;50.102;19.958;2023-06-14T11:33:32;17.30;73.15
68511;SHT31;55512;50.102;19.958;2023-06-14T11:36:01;17.39;72.92
68511;SHT31;55512;50.102;19.958;2023-06-14T11:38:30;17.49;72.49
68511;SHT31;55512;50.102;19.958;2023-06-14T11:40:58;17.59;72.08
68511;SHT31;55512;50.102;19.958;2023-06-14T11:43:25;17.66;71.60
68511;SHT31;55512;50.102;19.958;2023-06-14T11:45:52;17.67;71.21
68511;SHT31;55512;50.102;19.958;2023-06-14T11:48:18;17.68;70.83
68511;SHT31;55512;50.102;19.958;2023-06-14T11:50:43;17.70;70.42
68511;SHT31;55512;50.102;19.958;2023-06-14T11:53:09;17.67;69.96
68511;SHT31;55512;50.102;19.958;2023-06-14T11:55:38;17.72;70.33
68511;SHT31;55512;50.102;19.958;2023-06-14T11:58:05;17.83;70.30
68511;SHT31;55512;50.102;19.958;2023-06-14T12:00:32;17.92;70.06
68511;SHT31;55512;50.102;19.958;2023-06-14T12:03:00;18.11;70.18
68511;SHT31;55512;50.102;19.958;2023-06-14T12:05:26;18.39;70.12
68511;SHT31;55512;50.102;19.958;2023-06-14T12:08:03;18.72;69.67
68511;SHT31;55512;50.102;19.958;2023-06-14T12:10:42;18.87;68.62
68511;SHT31;55512;50.102;19.958;2023-06-14T12:13:10;19.00;67.72
68511;SHT31;55512;50.102;19.958;2023-06-14T12:15:36;19.23;67.30
68511;SHT31;55512;50.102;19.958;2023-06-14T12:18:04;19.35;66.96
68511;SHT31;55512;50.102;19.958;2023-06-14T12:20:34;19.44;67.28
68511;SHT31;55512;50.102;19.958;2023-06-14T12:23:02;19.40;65.98
68511;SHT31;55512;50.102;19.958;2023-06-14T12:25:30;19.37;65.40
68511;SHT31;55512;50.102;19.958;2023-06-14T12:27:59;19.40;65.16
68511;SHT31;55512;50.102;19.958;2023-06-14T12:30:31;19.43;64.03
68511;SHT31;55512;50.102;19.958;2023-06-14T12:32:57;19.46;62.74
68511;SHT31;55512;50.102;19.958;2023-06-14T12:35:22;19.52;63.22
68511;SHT31;55512;50.102;19.958;2023-06-14T12:37:48;19.57;62.03
68511;SHT31;55512;50.102;19.958;2023-06-14T12:40:13;19.66;62.72
68511;SHT31;55512;50.102;19.958;2023-06-14T12:42:40;19.77;62.86
68511;SHT31;55512;50.102;19.958;2023-06-14T12:45:06;19.84;62.50
68511;SHT31;55512;50.102;19.958;2023-06-14T12:47:32;19.90;62.80
68511;SHT31;55512;50.102;19.958;2023-06-14T12:49:58;20.08;62.60
68511;SHT31;55512;50.102;19.958;2023-06-14T12:52:23;20.31;63.07
68511;SHT31;55512;50.102;19.958;2023-06-14T12:54:49;20.52;62.50
68511;SHT31;55512;50.102;19.958;2023-06-14T12:57:15;20.70;61.04
68511;SHT31;55512;50.102;19.958;2023-06-14T12:59:41;20.53;59.07
68511;SHT31;55512;50.102;19.958;2023-06-14T13:02:12;20.42;59.62
68511;SHT31;55512;50.102;19.958;2023-06-14T13:04:40;20.44;59.53
68511;SHT31;55512;50.102;19.958;2023-06-14T13:07:06;20.48;59.33
68511;SHT31;55512;50.102;19.958;2023-06-14T13:09:31;20.48;59.45
68511;SHT31;55512;50.102;19.958;2023-06-14T13:11:57;20.54;60.03
68511;SHT31;55512;50.102;19.958;2023-06-14T13:14:23;20.67;59.72
68511;SHT31;55512;50.102;19.958;2023-06-14T13:16:49;20.80;59.87
68511;SHT31;55512;50.102;19.958;2023-06-14T13:19:15;20.79;57.87
68511;SHT31;55512;50.102;19.958;2023-06-14T13:21:41;20.79;58.50
68511;SHT31;55512;50.102;19.958;2023-06-14T13:24:06;20.91;58.71
68511;SHT31;55512;50.102;19.958;2023-06-14T13:26:32;20.98;58.20
68511;SHT31;55512;50.102;19.958;2023-06-14T13:28:59;21.03;57.11
68511;SHT31;55512;50.102;19.958;2023-06-14T13:31:25;21.12;56.72
68511;SHT31;55512;50.102;19.958;2023-06-14T13:33:50;21.15;56.31
68511;SHT31;55512;50.102;19.958;2023-06-14T13:36:16;21.23;56.70
68511;SHT31;55512;50.102;19.958;2023-06-14T13:38:42;21.34;56.38
68511;SHT31;55512;50.102;19.958;2023-06-14T13:41:08;21.41;56.77
68511;SHT31;55512;50.102;19.958;2023-06-14T13:43:33;21.38;56.24
68511;SHT31;55512;50.102;19.958;2023-06-14T13:45:59;21.38;56.10
68511;SHT31;55512;50.102;19.958;2023-06-14T13:48:24;21.30;56.48
68511;SHT31;55512;50.102;19.958;2023-06-14T13:50:50;21.27;56.42
68511;SHT31;55512;50.102;19.958;2023-06-14T13:53:15;21.29;56.17
68511;SHT31;55512;50.102;19.958;2023-06-14T13:55:40;21.44;55.79
68511;SHT31;55512;50.102;19.958;2023-06-14T13:58:06;21.65;55.10
68511;SHT31;55512;50.102;19.958;2023-06-14T14:00:31;21.91;55.54
68511;SHT31;55512;50.102;19.958;2023-06-14T14:02:57;22.08;54.00
68511;SHT31;55512;50.102;19.958;2023-06-14T14:05:24;21.93;53.61
68511;SHT31;55512;50.102;19.958;2023-06-14T14:07:54;21.92;54.09
68511;SHT31;55512;50.102;19.958;2023-06-14T14:10:19;22.00;53.87
68511;SHT31;55512;50.102;19.958;2023-06-14T14:12:45;22.08;53.51
68511;SHT31;55512;50.102;19.958;2023-06-14T14:15:11;22.06;54.23
68511;SHT31;55512;50.102;19.958;2023-06-14T14:17:39;22.26;54.58
68511;SHT31;55512;50.102;19.958;2023-06-14T14:20:06;22.54;54.26
68511;SHT31;55512;50.102;19.958;2023-06-14T14:22:32;22.47;52.65
68511;SHT31;55512;50.102;19.958;2023-06-14T14:24:58;22.24;52.94
68511;SHT31;55512;50.102;19.958;2023-06-14T14:27:23;22.00;52.83
68511;SHT31;55512;50.102;19.958;2023-06-14T14:29:49;21.86;53.55
68511;SHT31;55512;50.102;19.958;2023-06-14T14:32:15;21.85;52.93
68511;SHT31;55512;50.102;19.958;2023-06-14T14:34:40;21.75;52.72
68511;SHT31;55512;50.102;19.958;2023-06-14T14:37:06;21.71;53.03
68511;SHT31;55512;50.102;19.958;2023-06-14T14:39:32;21.59;53.86
68511;SHT31;55512;50.102;19.958;2023-06-14T14:41:58;21.38;54.26
68511;SHT31;55512;50.102;19.958;2023-06-14T14:44:23;21.33;54.26
68511;SHT31;55512;50.102;19.958;2023-06-14T14:46:49;21.29;55.05
68511;SHT31;55512;50.102;19.958;2023-06-14T14:49:14;21.19;54.71
68511;SHT31;55512;50.102;19.958;2023-06-14T14:51:40;21.01;55.30
68511;SHT31;55512;50.102;19.958;2023-06-14T14:54:05;20.98;56.06
68511;SHT31;55512;50.102;19.958;2023-06-14T14:56:31;21.05;55.71
68511;SHT31;55512;50.102;19.958;2023-06-14T14:58:57;20.99;55.72
68511;SHT31;55512;50.102;19.958;2023-06-14T15:01:22;20.96;55.95
68511;SHT31;55512;50.102;19.958;2023-06-14T15:03:48;20.93;55.86
68511;SHT31;55512;50.102;19.958;2023-06-14T15:06:13;20.89;55.97
68511;SHT31;55512;50.102;19.958;2023-06-14T15:08:39;20.86;56.05
68511;SHT31;55512;50.102;19.958;2023-06-14T15:11:04;20.88;55.80
68511;SHT31;55512;50.102;19.958;2023-06-14T15:13:30;20.88;55.33
68511;SHT31;55512;50.102;19.958;2023-06-14T15:15:55;20.92;55.24
68511;SHT31;55512;50.102;19.958;2023-06-14T15:18:21;20.93;55.50
68511;SHT31;55512;50.102;19.958;2023-06-14T15:20:47;20.92;55.32
68511;SHT31;55512;50.102;19.958;2023-06-14T15:23:14;20.85;54.92
68511;SHT31;55512;50.102;19.958;2023-06-14T15:25:44;20.75;55.26
68511;SHT31;55512;50.102;19.958;2023-06-14T15:28:14;20.80;55.71
68511;SHT31;55512;50.102;19.958;2023-06-14T15:30:39;20.92;55.82
68511;SHT31;55512;50.102;19.958;2023-06-14T15:33:05;21.19;55.31
68511;SHT31;55512;50.102;19.958;2023-06-14T15:35:31;21.74;54.82
68511;SHT31;55512;50.102;19.958;2023-06-14T15:37:57;23.12;53.48
68511;SHT31;55512;50.102;19.958;2023-06-14T15:40:22;25.05;51.24
68511;SHT31;55512;50.102;19.958;2023-06-14T15:42:48;26.85;48.40
68511;SHT31;55512;50.102;19.958;2023-06-14T15:45:14;28.15;44.42